createdAt,value
2022-12-28T00:00:17.144Z,10.17
2022-12-28T00:02:46.298Z,10.33
2022-12-28T00:05:17.804Z,9.60
2022-12-28T00:07:46.806Z,9.60
2022-12-28T00:10:17.560Z,10.00
2022-12-28T00:13:06.616Z,9.63
2022-12-28T00:15:37.879Z,10.23
2022-12-28T00:18:07.061Z,9.37
2022-12-28T00:20:36.513Z,9.53
2022-12-28T00:23:07.194Z,9.90
2022-12-28T00:25:37.767Z,9.90
2022-12-28T00:28:06.946Z,9.73
2022-12-28T00:30:35.815Z,9.80
2022-12-28T00:33:05.137Z,9.60
2022-12-28T00:35:34.116Z,9.70
2022-12-28T00:38:03.511Z,8.80
2022-12-28T00:40:32.576Z,9.60
2022-12-28T00:43:03.189Z,9.93
2022-12-28T00:45:32.723Z,9.83
2022-12-28T00:48:02.953Z,9.10
2022-12-28T00:50:33.449Z,9.93
2022-12-28T00:53:02.441Z,9.87
2022-12-28T00:55:31.498Z,10.03
2022-12-28T00:58:02.130Z,10.13
2022-12-28T01:00:32.117Z,9.37
2022-12-28T01:03:01.111Z,9.97
2022-12-28T01:05:30.217Z,10.30
2022-12-28T01:07:59.245Z,10.50
2022-12-28T01:10:28.274Z,10.10
2022-12-28T01:12:59.307Z,9.77
2022-12-28T01:15:29.818Z,9.50
2022-12-28T01:17:58.893Z,10.70
2022-12-28T01:20:29.171Z,9.80
2022-12-28T01:22:58.337Z,10.63
2022-12-28T01:25:33.194Z,9.80
2022-12-28T01:28:02.274Z,10.33
2022-12-28T01:30:32.603Z,9.90
2022-12-28T01:33:01.510Z,10.00
2022-12-28T01:35:30.488Z,9.90
2022-12-28T01:37:59.321Z,9.60
2022-12-28T01:40:28.292Z,9.90
2022-12-28T01:42:57.855Z,10.20
2022-12-28T01:45:28.720Z,10.10
2022-12-28T01:47:59.751Z,9.90
2022-12-28T01:50:30.526Z,10.30
2022-12-28T01:53:05.367Z,9.37
2022-12-28T01:55:36.411Z,10.10
2022-12-28T01:58:10.679Z,9.90
2022-12-28T02:00:40.876Z,10.20
2022-12-28T02:03:15.000Z,9.70
2022-12-28T02:05:48.300Z,9.60
2022-12-28T02:08:21.296Z,9.60
2022-12-28T02:10:52.536Z,9.73
2022-12-28T02:13:23.249Z,9.17
2022-12-28T02:15:52.483Z,9.40
2022-12-28T02:18:25.279Z,9.40
2022-12-28T02:21:22.022Z,9.80
2022-12-28T02:24:26.644Z,9.70
2022-12-28T02:27:01.352Z,9.77
2022-12-28T02:29:56.787Z,9.47
2022-12-28T02:32:41.682Z,10.10
2022-12-28T02:35:18.616Z,10.00
2022-12-28T02:37:49.782Z,9.57
2022-12-28T02:40:23.724Z,10.37
2022-12-28T02:42:54.384Z,10.10
2022-12-28T02:45:54.078Z,10.03
2022-12-28T02:48:41.170Z,10.17
2022-12-28T02:51:21.389Z,10.27
2022-12-28T02:54:34.347Z,10.03
2022-12-28T02:57:12.190Z,10.10
2022-12-28T02:59:53.474Z,10.60
2022-12-28T03:02:42.373Z,10.37
2022-12-28T03:05:39.966Z,10.20
2022-12-28T03:08:20.292Z,10.17
2022-12-28T03:10:57.034Z,9.93
2022-12-28T03:13:45.265Z,10.00
2022-12-28T03:16:23.195Z,10.20
2022-12-28T03:19:16.444Z,10.50
2022-12-28T03:22:05.188Z,10.20
2022-12-28T03:24:54.763Z,10.53
2022-12-28T03:27:48.133Z,10.30
2022-12-28T03:30:39.681Z,10.67
2022-12-28T03:33:12.442Z,10.37
2022-12-28T03:35:49.408Z,10.40
2022-12-28T03:38:28.094Z,10.47
2022-12-28T03:41:06.806Z,10.73
2022-12-28T03:43:48.257Z,10.87
2022-12-28T03:46:23.661Z,10.47
2022-12-28T03:48:54.018Z,10.60
2022-12-28T03:51:26.304Z,10.97
2022-12-28T03:53:56.928Z,11.17
2022-12-28T03:56:27.984Z,10.90
2022-12-28T03:58:59.398Z,10.87
2022-12-28T04:01:36.848Z,10.97
2022-12-28T04:04:05.859Z,11.30
2022-12-28T04:06:36.993Z,11.50
2022-12-28T04:09:07.009Z,11.00
2022-12-28T04:11:40.221Z,10.73
2022-12-28T04:14:11.808Z,11.50
2022-12-28T04:16:44.528Z,10.70
2022-12-28T04:19:17.128Z,11.40
2022-12-28T04:21:47.836Z,11.33
2022-12-28T04:24:16.704Z,11.37
2022-12-28T04:26:45.601Z,11.20
2022-12-28T04:29:15.658Z,11.63
2022-12-28T04:31:57.878Z,11.53
2022-12-28T04:34:27.569Z,11.87
2022-12-28T04:37:11.081Z,11.90
2022-12-28T04:39:54.232Z,11.70
2022-12-28T04:42:25.791Z,11.30
2022-12-28T04:44:54.764Z,11.40
2022-12-28T04:47:23.593Z,11.13
2022-12-28T04:49:52.565Z,11.97
2022-12-28T04:52:22.999Z,12.03
2022-12-28T04:54:51.969Z,12.33
2022-12-28T04:57:20.906Z,11.20
2022-12-28T04:59:49.922Z,12.47
2022-12-28T05:02:18.955Z,12.20
2022-12-28T05:04:48.012Z,12.07
2022-12-28T05:07:16.913Z,12.43
2022-12-28T05:09:47.100Z,12.33
2022-12-28T05:12:16.168Z,12.37
2022-12-28T05:14:45.094Z,12.47
2022-12-28T05:17:14.776Z,12.23
2022-12-28T05:19:43.860Z,12.63
2022-12-28T05:22:12.845Z,12.53
2022-12-28T05:24:42.449Z,12.07
2022-12-28T05:27:13.030Z,12.40
2022-12-28T05:29:42.062Z,12.30
2022-12-28T05:32:11.014Z,12.43
2022-12-28T05:34:42.277Z,12.37
2022-12-28T05:37:14.370Z,12.20
2022-12-28T05:39:46.107Z,12.77
2022-12-28T05:42:16.605Z,12.40
2022-12-28T05:44:45.581Z,11.97
2022-12-28T05:47:14.765Z,12.93
2022-12-28T05:49:43.904Z,12.83
2022-12-28T05:52:12.943Z,12.20
2022-12-28T05:54:41.971Z,12.17
2022-12-28T05:57:11.029Z,11.93
2022-12-28T05:59:41.762Z,11.93
2022-12-28T06:02:10.792Z,12.27
2022-12-28T06:04:39.792Z,11.57
2022-12-28T06:07:09.347Z,12.17
2022-12-28T06:09:38.351Z,11.93
2022-12-28T06:12:07.729Z,11.77
2022-12-28T06:14:36.665Z,11.70
2022-12-28T06:17:07.446Z,12.10
2022-12-28T06:19:36.475Z,12.50
2022-12-28T06:22:05.773Z,12.40
2022-12-28T06:24:35.325Z,11.43
2022-12-28T06:27:04.469Z,12.17
2022-12-28T06:29:33.312Z,11.93
2022-12-28T06:32:02.478Z,13.00
2022-12-28T06:34:32.574Z,11.60
2022-12-28T06:37:01.802Z,12.87
2022-12-28T06:39:30.760Z,12.07
2022-12-28T06:41:59.589Z,12.03
2022-12-28T06:44:28.476Z,13.10
2022-12-28T06:46:57.544Z,12.13
2022-12-28T06:49:26.514Z,12.50
2022-12-28T06:51:56.901Z,11.80
2022-12-28T06:54:25.963Z,12.13
2022-12-28T06:56:55.048Z,12.20
2022-12-28T06:59:24.111Z,12.23
2022-12-28T07:01:53.306Z,12.83
2022-12-28T07:04:22.636Z,11.63
2022-12-28T07:06:51.369Z,12.73
2022-12-28T07:09:21.785Z,12.23
2022-12-28T07:11:51.919Z,12.57
2022-12-28T07:14:20.878Z,11.90
2022-12-28T07:16:50.036Z,11.10
2022-12-28T07:19:19.004Z,11.80
2022-12-28T07:21:50.176Z,12.30
2022-12-28T07:24:19.168Z,11.20
2022-12-28T07:26:49.603Z,12.00
2022-12-28T07:29:18.739Z,10.83
2022-12-28T07:31:48.045Z,10.73
2022-12-28T07:34:17.019Z,10.67
2022-12-28T07:36:46.020Z,12.10
2022-12-28T07:39:14.983Z,11.73
2022-12-28T07:41:44.948Z,11.33
2022-12-28T07:44:15.256Z,10.77
2022-12-28T07:46:44.278Z,10.60
2022-12-28T07:49:13.140Z,10.80
2022-12-28T07:51:42.216Z,10.17
2022-12-28T07:54:11.448Z,10.30
2022-12-28T07:59:08.488Z,11.57
2022-12-28T08:01:38.847Z,9.70
2022-12-28T08:04:10.257Z,10.50
2022-12-28T08:06:42.058Z,11.00
2022-12-28T08:09:13.007Z,10.43
2022-12-28T08:11:43.916Z,10.97
2022-12-28T08:14:15.907Z,11.80
2022-12-28T08:16:46.254Z,12.90
2022-12-28T08:19:15.115Z,12.10
2022-12-28T08:21:46.596Z,10.67
2022-12-28T08:24:17.704Z,10.57
2022-12-28T08:26:48.582Z,10.57
2022-12-28T08:29:20.022Z,10.00
2022-12-28T08:31:51.238Z,9.93
2022-12-28T08:34:26.359Z,11.70
2022-12-28T08:36:55.855Z,10.77
2022-12-28T08:39:24.818Z,9.87
2022-12-28T08:41:53.846Z,10.23
2022-12-28T08:44:22.873Z,12.67
2022-12-28T08:46:55.731Z,10.30
2022-12-28T08:49:24.725Z,10.23
2022-12-28T08:51:53.638Z,10.37
2022-12-28T08:54:22.778Z,10.20
2022-12-28T08:56:51.625Z,9.97
2022-12-28T08:59:21.039Z,9.87
2022-12-28T09:01:50.119Z,9.73
2022-12-28T09:04:22.078Z,10.40
2022-12-28T09:06:51.536Z,9.90
2022-12-28T09:09:21.901Z,9.50
2022-12-28T09:11:51.733Z,9.87
2022-12-28T09:14:24.036Z,9.77
2022-12-28T09:16:54.517Z,9.20
2022-12-28T09:19:25.358Z,9.50
2022-12-28T09:21:55.301Z,9.37
2022-12-28T09:24:24.566Z,9.80
2022-12-28T09:26:55.501Z,9.53
2022-12-28T09:29:24.825Z,17.03
2022-12-28T09:31:54.801Z,13.10
2022-12-28T09:34:36.072Z,9.97
2022-12-28T09:37:07.790Z,9.67
2022-12-28T09:39:36.793Z,9.13
2022-12-28T09:42:10.119Z,9.40
2022-12-28T09:44:56.172Z,9.67
2022-12-28T09:47:32.299Z,9.80
2022-12-28T09:50:18.908Z,9.77
2022-12-28T09:53:01.065Z,9.03
2022-12-28T09:55:32.665Z,8.70
2022-12-28T09:58:02.154Z,9.17
2022-12-28T10:00:38.808Z,8.13
2022-12-28T10:03:16.675Z,8.70
2022-12-28T10:05:47.584Z,8.33
2022-12-28T10:08:19.467Z,8.63
2022-12-28T10:10:49.860Z,9.13
2022-12-28T10:13:53.115Z,8.30
2022-12-28T10:16:18.581Z,8.90
2022-12-28T10:18:48.705Z,8.23
2022-12-28T10:21:26.869Z,8.80
2022-12-28T10:24:30.182Z,8.70
2022-12-28T10:26:51.422Z,10.57
2022-12-28T10:29:22.286Z,8.70
2022-12-28T10:32:00.896Z,7.90
2022-12-28T10:34:35.274Z,8.70
2022-12-28T10:37:15.818Z,10.63
2022-12-28T10:39:51.815Z,8.67
2022-12-28T10:42:25.176Z,9.07
2022-12-28T10:44:55.122Z,7.53
2022-12-28T10:47:31.318Z,7.90
2022-12-28T10:50:36.218Z,8.57
2022-12-28T10:52:58.940Z,7.20
2022-12-28T10:55:29.916Z,6.93
2022-12-28T10:58:33.509Z,7.43
2022-12-28T11:01:07.796Z,6.37
2022-12-28T11:03:38.822Z,6.03
2022-12-28T11:06:13.394Z,5.67
2022-12-28T11:08:46.451Z,5.60
2022-12-28T11:11:21.085Z,5.50
2022-12-28T11:13:54.795Z,5.33
2022-12-28T11:16:23.850Z,5.57
2022-12-28T11:18:54.032Z,5.50
2022-12-28T11:21:23.942Z,5.00
2022-12-28T11:23:54.368Z,9.90
2022-12-28T11:26:23.851Z,6.60
2022-12-28T11:28:53.863Z,4.40
2022-12-28T11:31:27.098Z,4.10
2022-12-28T11:33:59.667Z,3.70
2022-12-28T11:36:29.162Z,3.77
2022-12-28T11:39:00.542Z,3.43
2022-12-28T11:42:02.804Z,3.40
2022-12-28T11:44:53.143Z,3.27
2022-12-28T11:47:33.017Z,3.13
2022-12-28T11:50:42.269Z,2.60
2022-12-28T11:53:49.737Z,3.00
2022-12-28T11:56:21.390Z,3.50
2022-12-28T11:59:06.386Z,2.73
2022-12-28T12:01:50.141Z,2.70
2022-12-28T12:04:46.322Z,2.60
2022-12-28T12:07:29.035Z,2.43
2022-12-28T12:10:34.976Z,2.90
2022-12-28T12:13:39.995Z,2.90
2022-12-28T12:16:21.402Z,3.20
2022-12-28T12:18:54.171Z,3.00
2022-12-28T12:21:33.790Z,3.07
2022-12-28T12:24:12.017Z,3.30
2022-12-28T12:26:46.320Z,3.73
2022-12-28T12:29:20.760Z,3.87
2022-12-28T12:31:56.414Z,3.50
2022-12-28T12:34:30.723Z,3.57
2022-12-28T12:37:29.390Z,3.70
2022-12-28T12:40:16.916Z,4.03
2022-12-28T12:43:01.892Z,3.70
2022-12-28T12:45:44.215Z,4.97
2022-12-28T12:48:36.604Z,4.40
2022-12-28T12:51:23.212Z,4.73
2022-12-28T12:54:04.014Z,4.67
2022-12-28T12:56:48.189Z,4.80
2022-12-28T12:59:31.626Z,5.97
2022-12-28T13:02:22.184Z,5.23
2022-12-28T13:04:51.648Z,5.50
2022-12-28T13:07:23.367Z,4.97
2022-12-28T13:09:54.746Z,5.60
2022-12-28T13:12:25.274Z,5.70
2022-12-28T13:14:58.553Z,5.63
2022-12-28T13:17:30.879Z,6.10
2022-12-28T13:20:23.731Z,5.40
2022-12-28T13:22:52.965Z,5.77
2022-12-28T13:25:27.386Z,5.77
2022-12-28T13:27:58.338Z,5.87
2022-12-28T13:30:27.487Z,6.27
2022-12-28T13:32:59.186Z,6.10
2022-12-28T13:35:33.264Z,6.13
2022-12-28T13:38:03.951Z,6.30
2022-12-28T13:40:40.619Z,6.03
2022-12-28T13:44:08.642Z,7.60
2022-12-28T13:46:41.706Z,7.30
2022-12-28T13:49:13.643Z,6.57
2022-12-28T13:51:47.139Z,6.87
2022-12-28T13:54:19.500Z,6.90
2022-12-28T13:56:48.681Z,6.43
2022-12-28T13:59:20.858Z,6.27
2022-12-28T14:01:51.882Z,6.77
2022-12-28T14:04:51.716Z,6.80
2022-12-28T14:07:18.858Z,6.63
2022-12-28T14:09:48.720Z,6.43
2022-12-28T14:12:19.486Z,6.80
2022-12-28T14:14:50.509Z,6.50
2022-12-28T14:17:21.480Z,6.97
2022-12-28T14:19:55.783Z,6.83
2022-12-28T14:22:27.588Z,6.97
2022-12-28T14:25:02.298Z,6.90
2022-12-28T14:27:36.268Z,7.10
2022-12-28T14:30:08.316Z,7.40
2022-12-28T14:32:42.921Z,7.43
2022-12-28T14:35:21.438Z,7.37
2022-12-28T14:37:53.798Z,7.07
2022-12-28T14:40:29.156Z,7.17
2022-12-28T14:43:01.251Z,6.83
2022-12-28T14:46:07.614Z,7.00
2022-12-28T14:48:36.256Z,7.20
2022-12-28T14:51:25.962Z,6.50
2022-12-28T14:54:18.448Z,7.20
2022-12-28T14:56:53.315Z,7.03
2022-12-28T14:59:27.991Z,7.50
2022-12-28T15:01:57.418Z,7.63
2022-12-28T15:04:29.641Z,7.23
2022-12-28T15:07:00.340Z,7.20
2022-12-28T15:09:29.250Z,7.40
2022-12-28T15:12:10.405Z,7.10
2022-12-28T15:14:39.697Z,7.27
2022-12-28T15:17:11.418Z,7.27
2022-12-28T15:19:40.440Z,7.30
2022-12-28T15:22:10.885Z,7.20
2022-12-28T15:24:41.621Z,7.03
2022-12-28T15:27:10.993Z,7.23
2022-12-28T15:30:04.437Z,7.50
2022-12-28T15:32:29.994Z,6.97
2022-12-28T15:34:59.142Z,6.40
2022-12-28T15:37:29.397Z,6.90
2022-12-28T15:39:58.372Z,7.10
2022-12-28T15:42:27.910Z,7.70
2022-12-28T15:44:57.363Z,6.90
2022-12-28T15:47:26.242Z,7.10
2022-12-28T15:49:55.231Z,7.03
2022-12-28T15:52:24.511Z,7.10
2022-12-28T15:54:55.442Z,6.90
2022-12-28T15:57:24.747Z,6.80
2022-12-28T15:59:54.735Z,7.13
2022-12-28T16:02:24.516Z,7.00
2022-12-28T16:04:53.940Z,7.10
2022-12-28T16:07:22.934Z,7.37
2022-12-28T16:09:51.758Z,6.87
2022-12-28T16:12:22.115Z,7.50
2022-12-28T16:14:51.243Z,7.20
2022-12-28T16:17:20.202Z,7.63
2022-12-28T16:19:49.321Z,7.30
2022-12-28T16:22:18.434Z,7.33
2022-12-28T16:24:48.622Z,7.40
2022-12-28T16:27:17.784Z,7.10
2022-12-28T16:29:52.709Z,7.83
2022-12-28T16:32:24.575Z,8.03
2022-12-28T16:34:55.362Z,7.40
2022-12-28T16:37:27.406Z,7.90
2022-12-28T16:39:56.622Z,7.77
2022-12-28T16:42:25.912Z,7.70
2022-12-28T16:44:56.533Z,7.80
2022-12-28T16:47:25.686Z,7.93
2022-12-28T16:49:54.767Z,8.23
2022-12-28T16:52:23.943Z,7.57
2022-12-28T16:54:53.026Z,8.07
2022-12-28T16:57:27.557Z,7.67
2022-12-28T17:00:01.976Z,7.87
2022-12-28T17:02:31.271Z,7.73
2022-12-28T17:05:00.455Z,7.47
2022-12-28T17:07:29.528Z,7.67
2022-12-28T17:09:58.382Z,14.10
2022-12-28T17:12:27.748Z,15.70
2022-12-28T17:15:00.565Z,12.90
2022-12-28T17:17:34.475Z,9.30
2022-12-28T17:20:03.564Z,8.70
2022-12-28T17:22:33.340Z,8.67
2022-12-28T17:25:02.623Z,7.70
2022-12-28T17:27:31.838Z,8.57
2022-12-28T17:30:00.973Z,7.43
2022-12-28T17:32:30.159Z,7.90
2022-12-28T17:35:00.531Z,7.73
2022-12-28T17:37:29.581Z,8.00
2022-12-28T17:39:58.873Z,7.97
2022-12-28T17:42:27.929Z,8.00
2022-12-28T17:44:56.969Z,7.70
2022-12-28T17:47:26.548Z,8.00
2022-12-28T17:49:55.714Z,7.80
2022-12-28T17:52:26.240Z,8.03
2022-12-28T17:54:55.227Z,8.33
2022-12-28T17:57:24.247Z,7.97
2022-12-28T17:59:53.579Z,8.30
2022-12-28T18:02:22.886Z,7.90
2022-12-28T18:04:52.001Z,8.00
2022-12-28T18:07:20.948Z,7.30
2022-12-28T18:09:51.295Z,7.70
2022-12-28T18:12:20.369Z,7.80
2022-12-28T18:14:49.318Z,7.30
2022-12-28T18:17:23.317Z,7.17
2022-12-28T18:19:55.851Z,7.80
2022-12-28T18:22:27.457Z,7.60
2022-12-28T18:24:58.151Z,7.53
2022-12-28T18:27:27.365Z,7.87
2022-12-28T18:29:56.402Z,8.23
2022-12-28T18:32:25.526Z,8.07
2022-12-28T18:34:54.864Z,8.20
2022-12-28T18:37:23.829Z,8.57
2022-12-28T18:39:53.603Z,8.40
2022-12-28T18:42:25.839Z,8.50
2022-12-28T18:44:55.377Z,8.70
2022-12-28T18:47:24.635Z,7.90
2022-12-28T18:49:53.930Z,8.23
2022-12-28T18:52:26.205Z,8.37
2022-12-28T18:54:58.851Z,8.33
2022-12-28T18:57:29.934Z,7.80
2022-12-28T18:59:59.039Z,7.40
2022-12-28T19:02:28.670Z,8.43
2022-12-28T19:04:57.795Z,8.40
2022-12-28T19:07:27.158Z,8.17
2022-12-28T19:10:13.395Z,7.83
2022-12-28T19:12:45.115Z,8.20
2022-12-28T19:15:16.138Z,8.50
2022-12-28T19:17:45.586Z,8.30
2022-12-28T19:20:15.036Z,8.20
2022-12-28T19:22:44.158Z,8.00
2022-12-28T19:25:13.305Z,8.07
2022-12-28T19:27:44.827Z,7.90
2022-12-28T19:30:14.604Z,8.00
2022-12-28T19:32:43.849Z,7.30
2022-12-28T19:35:13.403Z,7.53
2022-12-28T19:37:42.906Z,8.10
2022-12-28T19:40:13.406Z,7.13
2022-12-28T19:42:44.557Z,8.10
2022-12-28T19:45:13.990Z,8.40
2022-12-28T19:47:43.469Z,7.87
2022-12-28T19:50:12.524Z,8.63
2022-12-28T19:52:41.826Z,8.73
2022-12-28T19:55:11.609Z,8.83
2022-12-28T19:57:40.771Z,9.00
2022-12-28T20:00:12.880Z,8.37
2022-12-28T20:02:42.617Z,9.13
2022-12-28T20:05:12.190Z,9.07
2022-12-28T20:07:41.596Z,8.67
2022-12-28T20:10:10.931Z,9.17
2022-12-28T20:12:40.117Z,8.97
2022-12-28T20:15:11.625Z,8.63
2022-12-28T20:17:42.181Z,8.53
2022-12-28T20:20:16.746Z,8.67
2022-12-28T20:22:46.117Z,8.40
2022-12-28T20:25:15.184Z,8.57
2022-12-28T20:27:44.508Z,7.33
2022-12-28T20:30:15.635Z,7.70
2022-12-28T20:32:45.258Z,7.20
2022-12-28T20:35:14.566Z,7.63
2022-12-28T20:37:43.836Z,7.40
2022-12-28T20:40:13.375Z,7.70
2022-12-28T20:42:59.848Z,7.03
2022-12-28T20:45:34.477Z,6.83
2022-12-28T20:48:03.494Z,7.27
2022-12-28T20:50:32.557Z,7.27
2022-12-28T20:53:01.618Z,6.80
2022-12-28T20:55:30.763Z,6.90
2022-12-28T20:58:00.000Z,6.90
2022-12-28T21:00:30.696Z,6.97
2022-12-28T21:02:59.966Z,7.17
2022-12-28T21:05:29.004Z,7.17
2022-12-28T21:07:57.984Z,7.13
2022-12-28T21:10:27.069Z,7.27
2022-12-28T21:12:58.232Z,6.93
2022-12-28T21:15:27.270Z,7.43
2022-12-28T21:17:59.330Z,7.67
2022-12-28T21:20:31.640Z,7.97
2022-12-28T21:23:04.472Z,7.63
2022-12-28T21:25:34.699Z,7.50
2022-12-28T21:28:03.747Z,7.50
2022-12-28T21:30:32.803Z,7.70
2022-12-28T21:33:03.253Z,7.80
2022-12-28T21:35:34.802Z,7.90
2022-12-28T21:38:06.117Z,7.80
2022-12-28T21:40:36.186Z,7.43
2022-12-28T21:43:09.364Z,6.87
2022-12-28T21:45:38.652Z,7.50
2022-12-28T21:48:09.055Z,7.57
2022-12-28T21:50:38.129Z,7.60
2022-12-28T21:53:07.191Z,7.97
2022-12-28T21:55:45.406Z,7.77
2022-12-28T21:58:14.521Z,7.20
2022-12-28T22:01:16.052Z,7.93
2022-12-28T22:04:04.111Z,7.47
2022-12-28T22:06:33.221Z,7.63
2022-12-28T22:09:20.028Z,8.67
2022-12-28T22:12:06.405Z,8.07
2022-12-28T22:14:35.400Z,7.70
2022-12-28T22:17:08.385Z,7.63
2022-12-28T22:19:41.429Z,6.90
2022-12-28T22:22:10.447Z,7.80
2022-12-28T22:24:39.696Z,7.93
2022-12-28T22:27:08.883Z,7.47
2022-12-28T22:29:38.063Z,7.87
2022-12-28T22:32:07.311Z,7.87
2022-12-28T22:34:36.657Z,8.07
2022-12-28T22:37:07.093Z,7.90
2022-12-28T22:39:36.188Z,7.50
2022-12-28T22:42:05.306Z,8.10
2022-12-28T22:44:34.217Z,8.17
2022-12-28T22:47:03.494Z,7.83
2022-12-28T22:49:32.622Z,8.07
2022-12-28T22:52:01.635Z,8.00
2022-12-28T22:54:32.061Z,8.20
2022-12-28T22:57:01.193Z,7.73
2022-12-28T22:59:30.309Z,8.30
2022-12-28T23:02:01.509Z,7.77
2022-12-28T23:04:31.172Z,7.60
2022-12-28T23:07:03.798Z,7.80
2022-12-28T23:09:36.523Z,7.70
2022-12-28T23:12:06.208Z,7.43
2022-12-28T23:14:53.747Z,7.80
2022-12-28T23:17:23.868Z,7.70
2022-12-28T23:20:10.391Z,7.27
2022-12-28T23:22:56.857Z,7.50
2022-12-28T23:25:45.029Z,7.50
2022-12-28T23:28:16.849Z,7.13
2022-12-28T23:30:48.127Z,7.50
2022-12-28T23:33:17.856Z,7.53
2022-12-28T23:35:47.328Z,7.80
2022-12-28T23:38:16.296Z,7.40
2022-12-28T23:41:06.750Z,7.60
2022-12-28T23:43:35.919Z,7.57
2022-12-28T23:46:05.721Z,7.80
2022-12-28T23:48:35.104Z,7.77
2022-12-28T23:51:08.146Z,7.87
2022-12-28T23:53:37.427Z,7.30
2022-12-28T23:56:14.758Z,8.10
2022-12-28T23:58:43.726Z,7.90
